createdAt,value
2019-01-27T00:03:59.674Z,35.70
2019-01-27T00:09:01.116Z,35.70
2019-01-27T00:14:03.080Z,35.20
2019-01-27T00:19:04.453Z,35.60
2019-01-27T00:24:05.725Z,35.60
2019-01-27T00:29:07.384Z,35.30
2019-01-27T00:34:08.643Z,34.90
2019-01-27T00:39:10.311Z,35.00
2019-01-27T00:44:11.661Z,34.90
2019-01-27T00:49:12.903Z,34.90
2019-01-27T00:54:14.199Z,35.10
2019-01-27T00:59:15.445Z,34.90
2019-01-27T01:04:16.798Z,34.80
2019-01-27T01:09:18.054Z,34.90
2019-01-27T01:14:19.306Z,35.00
2019-01-27T01:19:20.642Z,35.80
2019-01-27T01:24:21.868Z,35.00
2019-01-27T01:29:23.210Z,34.90
2019-01-27T01:34:24.481Z,34.70
2019-01-27T01:39:25.815Z,35.00
2019-01-27T01:44:27.069Z,33.60
2019-01-27T01:49:28.325Z,32.60
2019-01-27T01:54:29.699Z,32.40
2019-01-27T01:59:30.948Z,32.50
2019-01-27T02:04:32.195Z,32.80
2019-01-27T02:09:33.421Z,32.50
2019-01-27T02:14:34.668Z,32.10
2019-01-27T02:19:36.052Z,31.70
2019-01-27T02:24:37.312Z,31.60
2019-01-27T02:29:38.583Z,32.60
2019-01-27T02:34:39.839Z,33.40
2019-01-27T02:39:41.066Z,34.00
2019-01-27T02:44:42.314Z,33.90
2019-01-27T02:49:43.594Z,34.00
2019-01-27T02:54:44.825Z,33.40
2019-01-27T02:59:46.075Z,34.70
2019-01-27T03:04:47.313Z,34.60
2019-01-27T03:09:48.571Z,34.60
2019-01-27T03:14:49.804Z,34.20
2019-01-27T03:19:51.043Z,33.90
2019-01-27T03:24:52.286Z,34.10
2019-01-27T03:29:53.536Z,34.00
2019-01-27T03:34:54.795Z,35.10
2019-01-27T03:39:56.035Z,35.80
2019-01-27T03:44:57.287Z,36.30
2019-01-27T03:49:58.524Z,36.40
2019-01-27T03:54:59.765Z,36.40
2019-01-27T04:00:01.466Z,36.50
2019-01-27T04:05:04.438Z,36.60
2019-01-27T04:10:21.904Z,36.60
2019-01-27T04:15:23.442Z,36.60
2019-01-27T04:20:24.781Z,36.60
2019-01-27T04:25:26.020Z,36.60
2019-01-27T04:30:31.915Z,36.60
2019-01-27T04:35:33.209Z,36.70
2019-01-27T04:40:34.448Z,36.70
2019-01-27T04:45:37.199Z,36.70
2019-01-27T04:50:38.438Z,36.70
2019-01-27T04:55:39.794Z,36.60
2019-01-27T05:00:41.052Z,36.80
2019-01-27T05:05:42.397Z,36.60
2019-01-27T05:10:43.676Z,36.60
2019-01-27T05:15:44.941Z,36.60
2019-01-27T05:20:46.192Z,36.60
2019-01-27T05:25:47.475Z,36.60
2019-01-27T05:30:48.695Z,36.50
2019-01-27T05:35:49.936Z,36.50
2019-01-27T05:40:51.178Z,36.50
2019-01-27T05:45:52.426Z,36.70
2019-01-27T05:50:53.721Z,36.50
2019-01-27T05:55:55.005Z,36.60
2019-01-27T06:00:56.228Z,36.60
2019-01-27T06:05:57.480Z,36.50
2019-01-27T06:10:58.711Z,36.40
2019-01-27T06:15:59.956Z,36.30
2019-01-27T06:21:01.210Z,36.30
2019-01-27T06:26:02.653Z,36.30
2019-01-27T06:31:04.000Z,36.30
2019-01-27T06:36:05.466Z,36.20
2019-01-27T06:41:06.744Z,36.10
2019-01-27T06:46:07.991Z,36.10
2019-01-27T06:51:09.276Z,36.00
2019-01-27T06:56:10.609Z,36.00
2019-01-27T07:01:13.765Z,36.00
2019-01-27T07:06:31.754Z,36.10
2019-01-27T07:11:34.893Z,36.10
2019-01-27T07:16:40.941Z,36.00
2019-01-27T07:21:44.092Z,36.10
2019-01-27T07:26:59.406Z,36.40
2019-01-27T07:32:02.648Z,35.70
2019-01-27T07:37:22.507Z,36.40
2019-01-27T07:42:31.895Z,35.70
2019-01-27T07:47:37.670Z,35.50
2019-01-27T07:52:53.018Z,35.90
2019-01-27T07:58:01.985Z,35.40
2019-01-27T08:03:11.799Z,35.40
2019-01-27T08:08:16.430Z,35.70
2019-01-27T08:13:25.599Z,35.10
2019-01-27T08:18:28.805Z,34.60
2019-01-27T08:23:31.943Z,34.00
2019-01-27T08:28:35.082Z,34.10
2019-01-27T08:33:41.146Z,34.10
2019-01-27T08:38:44.309Z,34.10
2019-01-27T08:44:04.149Z,33.80
2019-01-27T08:49:05.399Z,32.60
2019-01-27T08:54:06.650Z,32.10
2019-01-27T08:59:07.926Z,32.10
2019-01-27T09:04:11.091Z,31.40
2019-01-27T09:09:14.251Z,30.30
2019-01-27T09:14:17.509Z,30.60
2019-01-27T09:19:20.670Z,29.70
2019-01-27T09:24:42.069Z,30.40
2019-01-27T09:29:45.233Z,31.40
2019-01-27T09:34:48.433Z,31.20
2019-01-27T09:40:06.894Z,30.70
2019-01-27T09:45:12.438Z,30.70
2019-01-27T09:50:24.596Z,30.00
2019-01-27T09:55:44.708Z,28.30
2019-01-27T10:00:48.091Z,27.80
2019-01-27T10:06:00.210Z,25.60
2019-01-27T10:11:03.486Z,23.20
2019-01-27T10:16:12.663Z,21.50
2019-01-27T10:21:15.834Z,22.00
2019-01-27T10:26:18.988Z,21.00
2019-01-27T10:31:25.061Z,21.50
2019-01-27T10:36:28.221Z,20.40
2019-01-27T10:41:46.612Z,20.40
2019-01-27T10:46:52.415Z,22.10
2019-01-27T10:51:58.723Z,28.70
2019-01-27T10:57:05.026Z,31.30
2019-01-27T11:02:14.559Z,35.30
2019-01-27T11:07:23.744Z,36.20
2019-01-27T11:12:29.605Z,36.80
2019-01-27T11:17:35.760Z,36.50
2019-01-27T11:22:54.000Z,33.30
2019-01-27T11:28:12.466Z,28.90
2019-01-27T11:33:33.893Z,25.00
2019-01-27T11:38:52.110Z,21.40
2019-01-27T11:43:58.066Z,20.80
2019-01-27T11:49:01.242Z,21.00
2019-01-27T11:54:02.838Z,20.30
2019-01-27T11:59:04.503Z,20.20
2019-01-27T12:04:05.752Z,19.80
2019-01-27T12:09:07.529Z,18.10
2019-01-27T12:14:08.830Z,17.60
2019-01-27T12:19:10.111Z,17.30
2019-01-27T12:24:12.020Z,19.30
2019-01-27T12:29:13.283Z,20.40
2019-01-27T12:34:14.563Z,22.20
2019-01-27T12:39:15.862Z,22.30
2019-01-27T12:44:17.107Z,21.90
2019-01-27T12:49:18.363Z,21.90
2019-01-27T12:54:19.626Z,21.60
2019-01-27T12:59:21.511Z,21.00
2019-01-27T13:04:22.855Z,20.90
2019-01-27T13:09:24.092Z,21.30
2019-01-27T13:14:25.362Z,21.20
2019-01-27T13:19:26.635Z,21.40
2019-01-27T13:24:27.887Z,21.20
2019-01-27T13:29:29.141Z,20.70
2019-01-27T13:34:30.399Z,20.40
2019-01-27T13:39:31.839Z,20.10
2019-01-27T13:44:33.210Z,20.00
2019-01-27T13:49:34.451Z,19.90
2019-01-27T13:54:35.719Z,18.80
2019-01-27T13:59:37.121Z,17.80
2019-01-27T14:04:38.472Z,19.60
2019-01-27T14:09:39.705Z,19.60
2019-01-27T14:14:41.210Z,19.60
2019-01-27T14:19:42.568Z,19.70
2019-01-27T14:24:43.997Z,19.80
2019-01-27T14:29:45.264Z,19.50
2019-01-27T14:34:46.511Z,18.70
2019-01-27T14:39:48.716Z,19.00
2019-01-27T14:44:50.107Z,19.60
2019-01-27T14:49:51.354Z,19.70
2019-01-27T14:54:52.619Z,19.70
2019-01-27T14:59:53.890Z,19.60
2019-01-27T15:04:55.163Z,19.80
2019-01-27T15:09:56.450Z,20.20
2019-01-27T15:14:57.820Z,19.60
2019-01-27T15:19:59.090Z,19.40
2019-01-27T15:25:09.519Z,19.70
2019-01-27T15:30:16.327Z,19.60
2019-01-27T15:35:17.987Z,19.40
2019-01-27T15:40:19.961Z,19.30
2019-01-27T15:45:29.817Z,18.20
2019-01-27T15:50:36.052Z,19.70
2019-01-27T15:55:37.754Z,20.20
2019-01-27T16:00:39.221Z,23.00
2019-01-27T16:05:40.528Z,25.70
2019-01-27T16:10:41.939Z,27.20
2019-01-27T16:15:43.212Z,27.80
2019-01-27T16:20:44.598Z,27.80
2019-01-27T16:25:46.211Z,26.70
2019-01-27T16:30:58.379Z,25.50
2019-01-27T16:36:00.556Z,24.50
2019-01-27T16:41:01.927Z,26.00
2019-01-27T16:46:03.721Z,26.70
2019-01-27T16:51:05.289Z,25.40
2019-01-27T16:56:06.785Z,24.40
2019-01-27T17:01:08.082Z,24.60
2019-01-27T17:06:09.653Z,25.90
2019-01-27T17:11:11.165Z,27.50
2019-01-27T17:16:12.519Z,29.30
2019-01-27T17:21:13.795Z,30.40
2019-01-27T17:26:15.266Z,31.90
2019-01-27T17:31:16.634Z,32.20
2019-01-27T17:36:18.016Z,32.20
2019-01-27T17:41:19.510Z,32.00
2019-01-27T17:46:20.841Z,32.10
2019-01-27T17:51:22.075Z,31.70
2019-01-27T17:56:23.736Z,31.60
2019-01-27T18:01:43.672Z,31.60
2019-01-27T18:06:49.708Z,31.70
2019-01-27T18:12:04.854Z,31.50
2019-01-27T18:17:06.233Z,31.50
2019-01-27T18:22:07.607Z,31.50
2019-01-27T18:27:08.882Z,31.50
2019-01-27T18:32:10.238Z,31.10
2019-01-27T18:37:11.514Z,30.90
2019-01-27T18:42:12.886Z,31.10
2019-01-27T18:47:14.284Z,30.50
2019-01-27T18:52:15.879Z,30.00
2019-01-27T18:57:19.024Z,25.20
2019-01-27T19:02:22.205Z,25.10
2019-01-27T19:07:25.354Z,21.30
2019-01-27T19:12:43.537Z,20.70
2019-01-27T19:17:49.396Z,20.10
2019-01-27T19:22:52.594Z,19.90
2019-01-27T19:27:55.776Z,20.20
2019-01-27T19:33:01.537Z,20.00
2019-01-27T19:38:07.938Z,19.80
2019-01-27T19:43:16.970Z,19.70
2019-01-27T19:48:22.822Z,19.40
2019-01-27T19:53:42.866Z,19.60
2019-01-27T19:58:51.715Z,19.80
2019-01-27T20:03:54.891Z,19.80
2019-01-27T20:09:00.972Z,18.50
2019-01-27T20:14:04.326Z,19.70
2019-01-27T20:19:10.176Z,19.60
2019-01-27T20:24:19.051Z,19.60
2019-01-27T20:29:22.310Z,19.70
2019-01-27T20:34:31.093Z,21.10
2019-01-27T20:39:34.299Z,20.40
2019-01-27T20:44:40.065Z,19.10
2019-01-27T20:49:43.582Z,18.70
2019-01-27T20:54:58.747Z,18.30
2019-01-27T21:00:02.017Z,18.60
2019-01-27T21:05:08.412Z,18.90
2019-01-27T21:10:16.202Z,19.10
2019-01-27T21:15:19.983Z,19.30
2019-01-27T21:20:21.287Z,19.50
2019-01-27T21:25:22.557Z,20.00
2019-01-27T21:30:23.837Z,20.00
2019-01-27T21:35:25.102Z,20.50
2019-01-27T21:40:26.400Z,21.30
2019-01-27T21:45:27.676Z,22.40
2019-01-27T21:50:28.949Z,23.10
2019-01-27T21:55:30.206Z,23.20
2019-01-27T22:00:31.621Z,23.90
2019-01-27T22:05:32.972Z,24.80
2019-01-27T22:10:34.235Z,25.70
2019-01-27T22:15:35.602Z,26.10
2019-01-27T22:20:36.967Z,25.70
2019-01-27T22:25:38.260Z,25.30
2019-01-27T22:30:39.718Z,25.10
2019-01-27T22:35:40.964Z,25.10
2019-01-27T22:40:42.246Z,24.20
2019-01-27T22:45:43.596Z,24.00
2019-01-27T22:50:45.060Z,22.00
2019-01-27T22:55:46.317Z,20.70
2019-01-27T23:00:55.194Z,20.00
2019-01-27T23:05:56.660Z,20.00
2019-01-27T23:10:57.998Z,19.80
2019-01-27T23:15:59.354Z,19.40
2019-01-27T23:21:00.699Z,19.20
2019-01-27T23:26:02.154Z,19.40
2019-01-27T23:31:03.722Z,19.40
2019-01-27T23:36:05.163Z,19.40
2019-01-27T23:41:06.511Z,19.30
2019-01-27T23:46:07.755Z,19.20
2019-01-27T23:51:09.017Z,19.30
2019-01-27T23:56:10.242Z,19.20
